TAF Text Data
IDs:
Format:
Raw Decoded Include METAR

Data at: 0523 UTC 03 Jul 2022

KMKT 030520Z 0306/0406 VRB03KT P6SM SCT200
  FM031600 15006KT P6SM BKN120